createdAt,value
2023-02-08T00:02:05.928Z,264.07
2023-02-08T00:04:33.056Z,275.67
2023-02-08T00:07:00.231Z,273.73
2023-02-08T00:09:27.365Z,276.43
2023-02-08T00:11:54.480Z,288.43
2023-02-08T00:14:21.652Z,293.13
2023-02-08T00:16:48.764Z,328.03
2023-02-08T00:19:15.899Z,333.43
2023-02-08T00:21:43.028Z,328.70
2023-02-08T00:24:10.248Z,318.60
2023-02-08T00:26:37.529Z,329.37
2023-02-08T00:29:04.664Z,336.03
2023-02-08T00:31:31.823Z,331.23
2023-02-08T00:33:58.991Z,335.27
2023-02-08T00:36:26.154Z,326.10
2023-02-08T00:38:53.288Z,309.43
2023-02-08T00:41:20.471Z,295.80
2023-02-08T00:43:47.663Z,265.83
2023-02-08T00:46:14.802Z,277.03
2023-02-08T00:48:41.944Z,258.80
2023-02-08T00:51:16.139Z,262.60
2023-02-08T00:53:44.189Z,256.37
2023-02-08T00:56:11.687Z,245.37
2023-02-08T00:58:38.860Z,286.27
2023-02-08T01:01:06.129Z,305.90
2023-02-08T01:03:37.014Z,290.57
2023-02-08T01:06:04.671Z,258.70
2023-02-08T01:08:31.807Z,285.77
2023-02-08T01:11:18.976Z,255.03
2023-02-08T01:13:46.140Z,226.33
2023-02-08T01:16:17.088Z,234.07
2023-02-08T01:18:44.810Z,239.03
2023-02-08T01:21:13.374Z,240.83
2023-02-08T01:23:40.592Z,251.53
2023-02-08T01:26:07.963Z,236.80
2023-02-08T01:28:35.070Z,249.97
2023-02-08T01:31:05.853Z,243.37
2023-02-08T01:33:33.063Z,254.70
2023-02-08T01:36:00.377Z,250.90
2023-02-08T01:38:27.490Z,212.43
2023-02-08T01:40:54.620Z,214.10
2023-02-08T01:43:25.508Z,212.03
2023-02-08T01:45:52.712Z,206.50
2023-02-08T01:48:32.976Z,209.97
2023-02-08T01:51:08.100Z,199.03
2023-02-08T01:53:35.441Z,196.37
2023-02-08T01:56:03.589Z,205.33
2023-02-08T01:58:31.082Z,188.30
2023-02-08T02:00:58.250Z,194.40
2023-02-08T02:03:25.467Z,172.60
2023-02-08T02:05:56.704Z,193.30
2023-02-08T02:08:23.865Z,177.73
2023-02-08T02:10:51.023Z,198.90
2023-02-08T02:13:19.436Z,197.33
2023-02-08T02:15:46.586Z,183.33
2023-02-08T02:18:14.600Z,188.53
2023-02-08T02:20:42.064Z,198.30
2023-02-08T02:23:18.362Z,190.70
2023-02-08T02:26:04.388Z,202.77
2023-02-08T02:28:43.765Z,189.30
2023-02-08T02:31:22.938Z,189.00
2023-02-08T02:34:02.016Z,179.13
2023-02-08T02:36:29.116Z,187.93
2023-02-08T02:39:02.980Z,187.00
2023-02-08T02:42:15.075Z,177.83
2023-02-08T02:44:45.418Z,177.03
2023-02-08T02:47:20.850Z,188.63
2023-02-08T02:49:51.888Z,189.23
2023-02-08T02:52:20.811Z,189.67
2023-02-08T02:54:50.403Z,186.53
2023-02-08T02:57:19.820Z,193.33
2023-02-08T02:59:47.092Z,200.73
2023-02-08T03:02:14.531Z,187.33
2023-02-08T03:04:41.681Z,194.23
2023-02-08T03:07:20.714Z,224.00
2023-02-08T03:10:23.159Z,199.33
2023-02-08T03:12:50.271Z,200.87
2023-02-08T03:15:35.973Z,195.20
2023-02-08T03:18:06.113Z,213.97
2023-02-08T03:20:34.177Z,199.33
2023-02-08T03:23:01.333Z,186.33
2023-02-08T03:25:31.864Z,191.63
2023-02-08T03:28:09.660Z,189.83
2023-02-08T03:30:46.745Z,174.30
2023-02-08T03:33:15.725Z,184.20
2023-02-08T03:35:45.086Z,173.07
2023-02-08T03:38:22.823Z,177.40
2023-02-08T03:40:50.453Z,168.73
2023-02-08T03:43:19.106Z,175.50
2023-02-08T03:46:10.900Z,170.33
2023-02-08T03:48:38.994Z,171.60
2023-02-08T03:51:06.167Z,167.77
2023-02-08T03:53:38.336Z,166.87
2023-02-08T03:56:07.972Z,158.30
2023-02-08T03:58:48.166Z,160.03
2023-02-08T04:01:24.125Z,158.17
2023-02-08T04:03:53.562Z,148.23
2023-02-08T04:06:21.003Z,153.47
2023-02-08T04:08:48.648Z,164.70
2023-02-08T04:11:15.821Z,154.07
2023-02-08T04:13:43.041Z,152.97
2023-02-08T04:16:11.152Z,153.37
2023-02-08T04:18:38.341Z,156.97
2023-02-08T04:21:05.744Z,162.43
2023-02-08T04:23:32.923Z,165.03
2023-02-08T04:26:00.080Z,167.60
2023-02-08T04:28:27.191Z,178.53
2023-02-08T04:30:56.890Z,187.40
2023-02-08T04:33:24.164Z,182.73
2023-02-08T04:35:51.276Z,194.57
2023-02-08T04:38:18.386Z,196.03
2023-02-08T04:40:45.553Z,189.40
2023-02-08T04:43:12.651Z,185.30
2023-02-08T04:45:39.820Z,188.27
2023-02-08T04:48:07.471Z,190.87
2023-02-08T04:50:35.024Z,179.50
2023-02-08T04:53:02.164Z,176.70
2023-02-08T04:55:29.328Z,181.10
2023-02-08T04:57:56.453Z,192.00
2023-02-08T05:00:23.577Z,188.33
2023-02-08T05:02:57.451Z,189.43
2023-02-08T05:05:25.197Z,185.27
2023-02-08T05:07:52.469Z,189.27
2023-02-08T05:10:19.697Z,193.97
2023-02-08T05:12:46.863Z,181.63
2023-02-08T05:15:13.977Z,194.77
2023-02-08T05:17:41.117Z,186.97
2023-02-08T05:20:08.465Z,190.30
2023-02-08T05:22:35.580Z,189.20
2023-02-08T05:25:02.726Z,185.60
2023-02-08T05:27:29.869Z,181.43
2023-02-08T05:29:58.929Z,180.47
2023-02-08T05:32:26.254Z,178.33
2023-02-08T05:34:53.369Z,177.67
2023-02-08T05:37:20.488Z,176.03
2023-02-08T05:39:47.636Z,165.13
2023-02-08T05:42:14.762Z,173.27
2023-02-08T05:44:41.861Z,171.00
2023-02-08T05:47:09.013Z,169.83
2023-02-08T05:49:36.135Z,157.40
2023-02-08T05:52:03.257Z,161.03
2023-02-08T05:54:30.401Z,172.60
2023-02-08T05:56:57.533Z,161.60
2023-02-08T05:59:24.980Z,161.27
2023-02-08T06:01:52.127Z,168.73
2023-02-08T06:04:19.313Z,153.30
2023-02-08T06:06:46.462Z,174.23
2023-02-08T06:09:13.596Z,171.60
2023-02-08T06:11:40.718Z,192.37
2023-02-08T06:14:07.832Z,192.17
2023-02-08T06:16:35.056Z,184.57
2023-02-08T06:19:02.290Z,186.37
2023-02-08T06:21:29.432Z,174.50
2023-02-08T06:23:56.607Z,188.63
2023-02-08T06:26:23.737Z,183.87
2023-02-08T06:28:50.851Z,186.33
2023-02-08T06:31:18.078Z,189.87
2023-02-08T06:33:45.225Z,197.17
2023-02-08T06:36:12.345Z,197.50
2023-02-08T06:38:39.475Z,184.23
2023-02-08T06:41:06.602Z,185.70
2023-02-08T06:43:33.772Z,190.70
2023-02-08T06:46:04.780Z,210.43
2023-02-08T06:48:32.272Z,190.00
2023-02-08T06:50:59.426Z,204.60
2023-02-08T06:53:26.616Z,173.27
2023-02-08T06:55:53.735Z,181.83
2023-02-08T06:58:20.875Z,133.00
2023-02-08T07:00:48.168Z,117.77
2023-02-08T07:03:17.340Z,104.03
2023-02-08T07:05:58.786Z,90.53
2023-02-08T07:08:31.172Z,89.07
2023-02-08T07:10:58.299Z,141.90
2023-02-08T07:13:25.394Z,147.93
2023-02-08T07:15:52.553Z,152.43
2023-02-08T07:18:19.674Z,162.03
2023-02-08T07:20:46.796Z,150.03
2023-02-08T07:23:13.973Z,146.63
2023-02-08T07:25:41.095Z,164.03
2023-02-08T07:28:08.269Z,168.77
2023-02-08T07:30:35.487Z,159.20
2023-02-08T07:33:02.633Z,124.57
2023-02-08T07:35:29.789Z,115.63
2023-02-08T07:37:56.969Z,116.77
2023-02-08T07:40:24.142Z,120.40
2023-02-08T07:42:51.536Z,134.40
2023-02-08T07:45:18.755Z,133.17
2023-02-08T07:47:46.825Z,139.57
2023-02-08T07:50:14.003Z,144.13
2023-02-08T07:52:43.183Z,134.87
2023-02-08T07:55:11.782Z,131.27
2023-02-08T07:57:38.952Z,157.10
2023-02-08T08:00:06.360Z,151.23
2023-02-08T08:02:33.485Z,195.37
2023-02-08T08:05:00.832Z,187.10
2023-02-08T08:07:27.976Z,164.80
2023-02-08T08:09:55.128Z,202.47
2023-02-08T08:12:22.244Z,118.03
2023-02-08T08:14:49.454Z,120.33
2023-02-08T08:17:16.656Z,139.77
2023-02-08T08:19:43.759Z,126.37
2023-02-08T08:22:10.976Z,121.47
2023-02-08T08:24:38.146Z,155.40
2023-02-08T08:27:05.409Z,157.50
2023-02-08T08:29:32.958Z,147.90
2023-02-08T08:32:00.115Z,122.37
2023-02-08T08:34:30.093Z,126.90
2023-02-08T08:36:57.708Z,144.63
2023-02-08T08:39:25.056Z,124.27
2023-02-08T08:41:52.173Z,125.67
2023-02-08T08:44:19.321Z,104.93
2023-02-08T08:46:46.517Z,64.67
2023-02-08T08:49:13.631Z,74.47
2023-02-08T08:51:40.807Z,68.27
2023-02-08T08:54:08.077Z,40.03
2023-02-08T08:56:35.235Z,49.30
2023-02-08T08:59:02.404Z,37.57
2023-02-08T09:01:29.593Z,68.83
2023-02-08T09:03:56.725Z,53.63
2023-02-08T09:06:23.864Z,38.93
2023-02-08T09:08:51.856Z,31.20
2023-02-08T09:11:19.144Z,16.97
2023-02-08T09:13:46.275Z,9.40
2023-02-08T09:16:17.109Z,307.13
2023-02-08T09:18:44.465Z,138.73
2023-02-08T09:21:12.525Z,84.33
2023-02-08T09:23:39.662Z,48.13
2023-02-08T09:26:07.863Z,44.03
2023-02-08T09:28:35.028Z,31.27
2023-02-08T09:31:16.607Z,45.67
2023-02-08T09:33:43.786Z,35.60
2023-02-08T09:36:10.989Z,24.53
2023-02-08T09:38:38.359Z,28.47
2023-02-08T09:41:11.564Z,16.10
2023-02-08T09:43:41.646Z,12.50
2023-02-08T09:46:22.302Z,9.87
2023-02-08T09:48:50.788Z,31.17
2023-02-08T09:51:32.624Z,28.30
2023-02-08T09:54:03.747Z,25.43
2023-02-08T09:56:31.950Z,30.03
2023-02-08T09:58:59.104Z,52.43
2023-02-08T10:01:27.590Z,33.10
2023-02-08T10:03:56.892Z,23.10
2023-02-08T10:06:24.046Z,17.90
2023-02-08T10:08:51.563Z,18.35
2023-02-08T10:11:24.241Z,19.67
2023-02-08T10:14:00.498Z,21.60
2023-02-08T10:16:39.988Z,21.65
2023-02-08T10:19:07.114Z,22.80
2023-02-08T10:21:37.273Z,26.35
2023-02-08T10:24:04.404Z,29.23
2023-02-08T10:26:35.226Z,20.48
2023-02-08T10:29:05.421Z,20.67
2023-02-08T10:32:04.786Z,20.83
2023-02-08T10:34:31.977Z,28.90
2023-02-08T10:37:01.219Z,14.65
2023-02-08T10:39:29.454Z,17.65
2023-02-08T10:41:56.600Z,13.38
2023-02-08T10:44:32.716Z,16.13
2023-02-08T10:47:18.400Z,9.47
2023-02-08T10:49:50.294Z,14.67
2023-02-08T10:52:17.425Z,12.20
2023-02-08T10:54:44.586Z,14.93
2023-02-08T10:57:19.185Z,17.93
2023-02-08T10:59:53.685Z,11.90
2023-02-08T11:02:26.703Z,14.03
2023-02-08T11:05:00.153Z,14.07
2023-02-08T11:07:27.359Z,11.10
2023-02-08T11:09:54.521Z,17.73
2023-02-08T11:12:22.306Z,19.47
2023-02-08T11:14:50.143Z,17.08
2023-02-08T11:17:35.444Z,21.67
2023-02-08T11:20:02.747Z,14.90
2023-02-08T11:22:31.306Z,11.68
2023-02-08T11:25:02.960Z,18.38
2023-02-08T11:27:31.607Z,15.38
2023-02-08T11:30:13.849Z,20.70
2023-02-08T11:32:44.203Z,20.02
2023-02-08T11:35:21.717Z,15.55
2023-02-08T11:37:49.236Z,11.50
2023-02-08T11:40:18.753Z,12.05
2023-02-08T11:42:47.142Z,12.25
2023-02-08T11:45:24.333Z,11.40
2023-02-08T11:47:51.506Z,12.75
2023-02-08T11:50:28.629Z,16.42
2023-02-08T11:52:59.658Z,18.15
2023-02-08T11:55:27.805Z,18.80
2023-02-08T11:57:56.564Z,23.70
2023-02-08T12:00:27.493Z,11.60
2023-02-08T12:02:57.039Z,29.08
2023-02-08T12:05:25.522Z,24.50
2023-02-08T12:08:18.946Z,12.10
2023-02-08T12:10:58.308Z,11.25
2023-02-08T12:13:25.428Z,11.70
2023-02-08T12:16:15.638Z,15.52
2023-02-08T12:18:59.245Z,14.70
2023-02-08T12:21:27.366Z,19.00
2023-02-08T12:24:00.641Z,22.35
2023-02-08T12:26:33.972Z,11.50
2023-02-08T12:29:07.680Z,19.58
2023-02-08T12:31:53.220Z,14.30
2023-02-08T12:34:29.349Z,13.95
2023-02-08T12:37:27.030Z,18.38
2023-02-08T12:40:15.804Z,11.68
2023-02-08T12:42:49.230Z,26.55
2023-02-08T12:45:38.066Z,9.85
2023-02-08T12:48:14.484Z,10.32
2023-02-08T12:50:47.608Z,10.13
2023-02-08T12:53:30.837Z,10.20
2023-02-08T12:56:33.600Z,10.55
2023-02-08T12:59:11.926Z,9.30
2023-02-08T13:01:44.488Z,15.95
2023-02-08T13:04:12.052Z,12.02
2023-02-08T13:06:40.578Z,10.07
2023-02-08T13:09:13.780Z,9.55
2023-02-08T13:11:42.674Z,10.88
2023-02-08T13:14:12.376Z,16.23
2023-02-08T13:16:46.722Z,16.40
2023-02-08T13:19:37.199Z,18.30
2023-02-08T13:22:04.344Z,25.73
2023-02-08T13:24:35.538Z,19.63
2023-02-08T13:27:03.457Z,16.88
2023-02-08T13:29:30.766Z,12.23
2023-02-08T13:31:59.796Z,13.75
2023-02-08T13:34:33.115Z,30.48
2023-02-08T13:37:01.836Z,21.30
2023-02-08T13:39:28.942Z,12.23
2023-02-08T13:41:56.142Z,13.02
2023-02-08T13:44:29.106Z,12.63
2023-02-08T13:46:56.267Z,15.23
2023-02-08T13:49:42.042Z,15.40
2023-02-08T13:52:12.692Z,11.30
2023-02-08T13:54:39.845Z,12.37
2023-02-08T13:57:26.953Z,16.53
2023-02-08T14:00:14.329Z,16.20
2023-02-08T14:02:44.094Z,14.47
2023-02-08T14:05:30.052Z,17.67
2023-02-08T14:07:57.188Z,14.97
2023-02-08T14:10:26.777Z,24.03
2023-02-08T14:12:53.932Z,25.17
2023-02-08T14:15:24.885Z,17.53
2023-02-08T14:17:55.583Z,15.23
2023-02-08T14:20:29.320Z,18.30
2023-02-08T14:22:57.911Z,14.40
2023-02-08T14:25:45.775Z,14.60
2023-02-08T14:28:26.783Z,14.57
2023-02-08T14:30:54.743Z,17.03
2023-02-08T14:33:22.756Z,17.33
2023-02-08T14:35:57.074Z,15.30
2023-02-08T14:38:24.181Z,17.20
2023-02-08T14:40:57.813Z,18.30
2023-02-08T14:43:34.931Z,17.80
2023-02-08T14:46:20.973Z,26.00
2023-02-08T14:48:49.307Z,26.37
2023-02-08T14:51:20.023Z,37.70
2023-02-08T14:53:57.590Z,48.63
2023-02-08T14:56:24.739Z,59.43
2023-02-08T14:58:52.690Z,62.40
2023-02-08T15:01:25.391Z,54.67
2023-02-08T15:03:54.429Z,54.00
2023-02-08T15:06:49.986Z,49.10
2023-02-08T15:09:17.391Z,49.47
2023-02-08T15:11:44.549Z,55.40
2023-02-08T15:14:15.075Z,53.53
2023-02-08T15:16:42.827Z,61.00
2023-02-08T15:19:10.312Z,78.50
2023-02-08T15:21:38.757Z,82.90
2023-02-08T15:24:12.309Z,69.40
2023-02-08T15:26:44.417Z,68.63
2023-02-08T15:29:44.621Z,63.30
2023-02-08T15:32:15.654Z,60.77
2023-02-08T15:34:46.196Z,61.47
2023-02-08T15:37:16.265Z,59.43
2023-02-08T15:39:43.466Z,76.07
2023-02-08T15:42:17.408Z,157.10
2023-02-08T15:44:44.569Z,162.27
2023-02-08T15:47:17.048Z,203.90
2023-02-08T15:49:44.732Z,191.00
2023-02-08T15:52:18.769Z,163.60
2023-02-08T15:54:46.175Z,164.27
2023-02-08T15:57:22.466Z,173.07
2023-02-08T15:59:49.599Z,113.80
2023-02-08T16:02:19.351Z,120.43
2023-02-08T16:04:46.873Z,245.10
2023-02-08T16:07:32.923Z,208.80
2023-02-08T16:10:00.064Z,147.83
2023-02-08T16:12:27.549Z,151.43
2023-02-08T16:14:57.711Z,137.97
2023-02-08T16:17:43.795Z,145.03
2023-02-08T16:20:23.183Z,153.00
2023-02-08T16:23:03.479Z,185.27
2023-02-08T16:25:30.636Z,174.30
2023-02-08T16:27:57.792Z,149.30
2023-02-08T16:30:25.084Z,138.40
2023-02-08T16:32:52.288Z,159.30
2023-02-08T16:35:22.149Z,148.30
2023-02-08T16:37:54.293Z,164.53
2023-02-08T16:40:27.538Z,129.23
2023-02-08T16:42:54.710Z,145.03
2023-02-08T16:45:22.575Z,199.57
2023-02-08T16:47:52.544Z,161.67
2023-02-08T16:50:26.795Z,125.63
2023-02-08T16:52:55.264Z,127.57
2023-02-08T16:55:26.202Z,195.53
2023-02-08T16:57:54.285Z,218.57
2023-02-08T17:00:21.502Z,211.53
2023-02-08T17:02:48.696Z,154.30
2023-02-08T17:05:16.036Z,184.23
2023-02-08T17:07:43.240Z,137.63
2023-02-08T17:10:12.313Z,146.57
2023-02-08T17:12:39.490Z,172.10
2023-02-08T17:15:06.832Z,179.70
2023-02-08T17:17:33.934Z,203.07
2023-02-08T17:20:01.094Z,167.13
2023-02-08T17:22:28.272Z,166.40
2023-02-08T17:24:55.372Z,180.10
2023-02-08T17:27:22.719Z,296.20
2023-02-08T17:29:51.323Z,219.73
2023-02-08T17:32:19.828Z,287.07
2023-02-08T17:34:46.992Z,228.13
2023-02-08T17:37:14.172Z,152.87
2023-02-08T17:39:41.271Z,150.83
2023-02-08T17:42:08.457Z,137.60
2023-02-08T17:44:35.582Z,131.77
2023-02-08T17:47:02.770Z,145.47
2023-02-08T17:49:30.256Z,144.90
2023-02-08T17:51:58.117Z,166.47
2023-02-08T17:54:25.232Z,169.40
2023-02-08T17:56:56.582Z,162.00
2023-02-08T17:59:23.717Z,167.23
2023-02-08T18:01:50.965Z,173.77
2023-02-08T18:04:18.301Z,157.40
2023-02-08T18:06:45.430Z,182.10
2023-02-08T18:09:12.577Z,171.27
2023-02-08T18:11:39.727Z,154.27
2023-02-08T18:14:06.860Z,152.07
2023-02-08T18:16:35.785Z,150.50
2023-02-08T18:19:02.972Z,145.97
2023-02-08T18:21:33.039Z,146.43
2023-02-08T18:24:03.506Z,157.90
2023-02-08T18:26:33.459Z,115.87
2023-02-08T18:29:02.042Z,128.87
2023-02-08T18:31:29.381Z,143.57
2023-02-08T18:33:56.590Z,147.20
2023-02-08T18:36:23.800Z,138.47
2023-02-08T18:38:51.833Z,142.63
2023-02-08T18:41:21.204Z,147.73
2023-02-08T18:43:48.624Z,155.40
2023-02-08T18:46:18.370Z,146.40
2023-02-08T18:48:45.805Z,151.67
2023-02-08T18:51:14.433Z,163.27
2023-02-08T18:53:41.770Z,185.83
2023-02-08T18:56:09.512Z,186.03
2023-02-08T18:58:36.878Z,173.93
2023-02-08T19:01:08.633Z,148.70
2023-02-08T19:03:35.878Z,162.70
2023-02-08T19:06:04.181Z,126.00
2023-02-08T19:08:31.588Z,126.50
2023-02-08T19:10:58.772Z,112.47
2023-02-08T19:13:25.899Z,108.60
2023-02-08T19:15:53.173Z,117.30
2023-02-08T19:18:20.323Z,104.57
2023-02-08T19:20:47.424Z,90.13
2023-02-08T19:23:14.596Z,118.20
2023-02-08T19:25:42.089Z,126.47
2023-02-08T19:28:09.871Z,129.30
2023-02-08T19:30:37.105Z,142.37
2023-02-08T19:33:04.293Z,142.43
2023-02-08T19:35:31.440Z,156.30
2023-02-08T19:37:58.624Z,158.73
2023-02-08T19:40:25.757Z,208.83
2023-02-08T19:42:52.924Z,183.07
2023-02-08T19:45:20.147Z,191.70
2023-02-08T19:47:51.550Z,205.27
2023-02-08T19:50:18.971Z,248.33
2023-02-08T19:52:46.124Z,221.00
2023-02-08T19:55:13.253Z,206.53
2023-02-08T19:57:40.647Z,199.77
2023-02-08T20:00:17.498Z,209.67
2023-02-08T20:02:49.987Z,191.57
2023-02-08T20:05:17.148Z,178.53
2023-02-08T20:07:44.255Z,201.70
2023-02-08T20:10:11.401Z,180.90
2023-02-08T20:12:38.542Z,158.57
2023-02-08T20:15:05.828Z,188.57
2023-02-08T20:17:32.956Z,168.50
2023-02-08T20:20:00.169Z,154.53
2023-02-08T20:22:27.332Z,168.90
2023-02-08T20:24:54.450Z,180.10
2023-02-08T20:27:21.627Z,195.47
2023-02-08T20:29:48.757Z,185.77
2023-02-08T20:32:15.888Z,191.50
2023-02-08T20:34:53.958Z,176.77
2023-02-08T20:37:26.067Z,184.03
2023-02-08T20:39:53.245Z,151.73
2023-02-08T20:42:20.371Z,204.67
2023-02-08T20:44:47.529Z,207.53
2023-02-08T20:47:19.053Z,191.73
2023-02-08T20:49:46.527Z,217.83
2023-02-08T20:52:13.742Z,202.57
2023-02-08T20:54:42.112Z,192.30
2023-02-08T20:57:15.277Z,172.37
2023-02-08T20:59:42.753Z,164.80
2023-02-08T21:02:11.098Z,165.27
2023-02-08T21:04:38.230Z,175.83
2023-02-08T21:07:05.399Z,160.33
2023-02-08T21:09:32.526Z,171.27
2023-02-08T21:11:59.634Z,182.63
2023-02-08T21:14:26.788Z,174.90
2023-02-08T21:16:56.253Z,328.47
2023-02-08T21:19:23.908Z,209.57
2023-02-08T21:21:51.668Z,140.00
2023-02-08T21:24:18.841Z,150.43
2023-02-08T21:26:45.954Z,154.80
2023-02-08T21:29:13.130Z,146.40
2023-02-08T21:31:40.345Z,148.10
2023-02-08T21:34:07.595Z,174.30
2023-02-08T21:36:34.927Z,266.57
2023-02-08T21:39:02.089Z,231.67
2023-02-08T21:41:30.382Z,207.50
2023-02-08T21:43:58.204Z,201.23
2023-02-08T21:46:25.555Z,203.70
2023-02-08T21:49:11.565Z,226.17
2023-02-08T21:51:57.448Z,231.90
2023-02-08T21:54:44.195Z,205.00
2023-02-08T21:57:21.662Z,198.37
2023-02-08T21:59:49.257Z,166.17
2023-02-08T22:02:21.591Z,212.73
2023-02-08T22:05:07.448Z,150.17
2023-02-08T22:07:41.346Z,152.17
2023-02-08T22:10:09.372Z,159.13
2023-02-08T22:12:36.577Z,156.97
2023-02-08T22:15:03.805Z,212.03
2023-02-08T22:17:30.978Z,200.57
2023-02-08T22:19:58.091Z,201.90
2023-02-08T22:22:25.222Z,170.57
2023-02-08T22:24:52.368Z,184.70
2023-02-08T22:27:19.518Z,223.80
2023-02-08T22:29:46.680Z,229.63
2023-02-08T22:32:17.053Z,201.83
2023-02-08T22:34:47.247Z,204.57
2023-02-08T22:37:14.565Z,203.73
2023-02-08T22:39:41.814Z,224.17
2023-02-08T22:42:12.048Z,230.63
2023-02-08T22:44:39.653Z,213.13
2023-02-08T22:47:07.084Z,246.80
2023-02-08T22:49:34.492Z,228.20
2023-02-08T22:52:01.742Z,240.93
2023-02-08T22:54:28.927Z,254.93
2023-02-08T22:56:56.086Z,240.43
2023-02-08T22:59:23.206Z,217.97
2023-02-08T23:01:50.401Z,212.87
2023-02-08T23:04:17.522Z,207.00
2023-02-08T23:06:44.673Z,180.80
2023-02-08T23:09:12.113Z,190.30
2023-02-08T23:11:39.356Z,167.37
2023-02-08T23:14:06.490Z,188.17
2023-02-08T23:16:33.691Z,185.50
2023-02-08T23:19:01.097Z,195.83
2023-02-08T23:21:28.310Z,181.93
2023-02-08T23:23:55.467Z,152.57
2023-02-08T23:26:22.938Z,152.53
2023-02-08T23:28:50.892Z,153.13
2023-02-08T23:31:18.312Z,169.73
2023-02-08T23:33:45.530Z,150.37
2023-02-08T23:36:13.756Z,151.73
2023-02-08T23:38:42.525Z,161.97
2023-02-08T23:41:13.565Z,129.70
2023-02-08T23:43:40.743Z,123.10
2023-02-08T23:46:08.493Z,119.43
2023-02-08T23:48:36.391Z,141.57
2023-02-08T23:51:05.149Z,134.13
2023-02-08T23:53:32.327Z,134.23
2023-02-08T23:56:22.725Z,138.80
2023-02-08T23:58:50.451Z,126.63
